Time;durP1;ratioP1;P1;durP2;ratioP2;P2;SDS_P1;SDS_P2;PMS_P1;PMS_P2;Temp;Humidity;BMP_temperature;BMP_pressure;BME280_temperature;BME280_humidity;BME280_pressure;Samples;Min_cycle;Max_cycle;Signal;HPM_P1;HPM_P2
2022/10/30 00:02:16;;;;;;;0.00;0.00;;;;;;;;;;4953628;28;20109;-86
2022/10/30 00:04:43;;;;;;;0.00;0.00;;;;;;;;;;4959648;28;20052;-87
2022/10/30 00:07:10;;;;;;;0.00;0.00;;;15.40;99.90;;;;;;4953659;28;20560;-84
2022/10/30 00:09:37;;;;;;;0.00;0.00;;;15.40;99.90;;;;;;4946695;28;20136;-86
2022/10/30 00:12:04;;;;;;;0.00;0.00;;;15.40;99.90;;;;;;4951820;28;20050;-84
2022/10/30 00:14:32;;;;;;;0.00;0.00;;;15.30;99.90;;;;;;4954964;28;20047;-85
2022/10/30 00:17:00;;;;;;;0.00;0.00;;;;;;;;;;4959597;28;20051;-85
2022/10/30 00:19:27;;;;;;;0.00;0.00;;;;;;;;;;4949066;28;20410;-85
2022/10/30 00:21:56;;;;;;;0.10;0.10;;;15.30;99.90;;;;;;4958769;28;20048;-85
2022/10/30 00:24:22;;;;;;;0.00;0.00;;;15.30;99.90;;;;;;4953730;28;20043;-85
2022/10/30 00:26:49;;;;;;;0.10;0.10;;;15.30;99.90;;;;;;4955426;28;20079;-85
2022/10/30 00:29:16;;;;;;;0.08;0.08;;;;;;;;;;4955338;28;20043;-85
2022/10/30 00:31:44;;;;;;;0.00;0.00;;;15.20;99.90;;;;;;4956446;28;20050;-85
2022/10/30 00:34:11;;;;;;;0.00;0.00;;;14.90;99.90;;;;;;4955457;28;20120;-86
2022/10/30 00:36:38;;;;;;;0.00;0.00;;;15.20;99.90;;;;;;4953716;28;20050;-85
2022/10/30 00:39:05;;;;;;;0.00;0.00;;;15.20;99.90;;;;;;4961436;28;21581;-87
2022/10/30 00:41:32;;;;;;;0.00;0.00;;;15.20;99.90;;;;;;4961034;28;20047;-85
2022/10/30 00:43:59;;;;;;;0.10;0.10;;;;;;;;;;4954499;28;20122;-87
2022/10/30 00:46:29;;;;;;;0.00;0.00;;;15.30;99.90;;;;;;4950321;28;20122;-84
2022/10/30 00:49:01;;;;;;;0.00;0.00;;;15.20;99.90;;;;;;4978474;28;20142;-84
2022/10/30 00:51:29;;;;;;;0.00;0.00;;;15.30;99.90;;;;;;4970252;28;20051;-88
2022/10/30 00:53:59;;;;;;;0.00;0.00;;;15.20;99.90;;;;;;4959436;28;20595;-85
2022/10/30 00:56:26;;;;;;;;;;;15.20;99.90;;;;;;4950348;28;20082;-85
2022/10/30 00:58:57;;;;;;;0.00;0.00;;;15.30;99.90;;;;;;4954207;28;19922;-83
2022/10/30 01:01:27;;;;;;;0.00;0.00;;;15.30;99.90;;;;;;4951527;28;20049;-86
2022/10/30 01:03:58;;;;;;;0.00;0.00;;;15.20;99.90;;;;;;4967906;28;20058;-87
2022/10/30 01:06:27;;;;;;;0.00;0.00;;;15.20;99.90;;;;;;4953375;28;20497;-86
2022/10/30 01:08:54;;;;;;;0.00;0.00;;;15.20;99.90;;;;;;4951018;28;20307;-86
2022/10/30 01:11:26;;;;;;;0.00;0.00;;;;;;;;;;4954662;28;20043;-86
2022/10/30 01:13:55;;;;;;;0.00;0.00;;;15.20;99.90;;;;;;4952623;28;20051;-86
2022/10/30 01:16:53;;;;;;;0.00;0.00;;;15.20;99.90;;;;;;4955729;28;20074;-86
2022/10/30 01:19:30;;;;;;;0.00;0.00;;;15.20;99.90;;;;;;4948608;28;20499;-86
2022/10/30 01:22:17;;;;;;;0.00;0.00;;;15.20;99.90;;;;;;4948861;28;20500;-85
2022/10/30 01:24:55;;;;;;;0.00;0.00;;;15.20;99.90;;;;;;4950763;28;20518;-87
2022/10/30 01:27:38;;;;;;;0.00;0.00;;;15.20;99.90;;;;;;4953003;28;20047;-85
2022/10/30 01:30:21;;;;;;;0.00;0.00;;;15.10;99.90;;;;;;4953836;28;20517;-86
2022/10/30 01:33:08;;;;;;;0.00;0.00;;;15.60;99.90;;;;;;4949366;28;20410;-86
2022/10/30 01:35:46;;;;;;;0.00;0.00;;;15.30;99.90;;;;;;4949378;28;20075;-84
2022/10/30 01:38:20;;;;;;;0.00;0.00;;;15.10;99.90;;;;;;4945166;28;20043;-85
2022/10/30 01:40:47;;;;;;;0.00;0.00;;;;;;;;;;4970166;28;20400;-86
2022/10/30 01:43:14;;;;;;;0.00;0.00;;;15.10;99.90;;;;;;4949830;28;20047;-86
2022/10/30 01:46:20;;;;;;;0.00;0.00;;;15.10;99.90;;;;;;4963308;28;20039;-86
2022/10/30 01:49:00;;;;;;;0.00;0.00;;;15.10;99.90;;;;;;4951238;28;20044;-85
2022/10/30 01:51:39;;;;;;;0.00;0.00;;;15.10;99.90;;;;;;4956900;28;20487;-85
2022/10/30 01:54:18;;;;;;;0.00;0.00;;;15.10;99.90;;;;;;4946759;28;20128;-85
2022/10/30 01:56:58;;;;;;;0.00;0.00;;;15.10;99.90;;;;;;4950609;28;20040;-86
2022/10/30 01:59:30;;;;;;;0.00;0.00;;;15.10;99.90;;;;;;4968800;28;20049;-86
2022/10/30 02:01:58;;;;;;;0.00;0.00;;;;;;;;;;4952077;28;20039;-86
2022/10/30 02:04:25;;;;;;;0.00;0.00;;;15.20;99.90;;;;;;4948986;28;20050;-85
2022/10/30 02:06:54;;;;;;;0.00;0.00;;;15.20;99.90;;;;;;4950157;28;20085;-86
2022/10/30 02:12:01;;;;;;;0.00;0.00;;;;;;;;;;4972446;28;20039;-82
2022/10/30 02:14:32;;;;;;;0.00;0.00;;;15.10;99.90;;;;;;4964059;28;20051;-82
2022/10/30 02:17:02;;;;;;;0.00;0.00;;;16.60;99.90;;;;;;4970095;28;20034;-81
2022/10/30 02:19:30;;;;;;;0.00;0.00;;;;;;;;;;4974268;28;20071;-83
2022/10/30 02:21:58;;;;;;;0.00;0.00;;;15.10;99.90;;;;;;4977877;28;20074;-84
2022/10/30 02:24:25;;;;;;;0.00;0.00;;;;;;;;;;4979747;28;20049;-83
2022/10/30 02:26:52;;;;;;;0.00;0.00;;;;;;;;;;4976541;28;20046;-82
2022/10/30 02:29:20;;;;;;;0.00;0.00;;;;;;;;;;4996213;28;20045;-82
2022/10/30 02:31:47;;;;;;;0.00;0.00;;;;;;;;;;4973387;28;20031;-81
2022/10/30 02:34:14;;;;;;;0.00;0.00;;;15.10;99.90;;;;;;4980544;28;20050;-82
2022/10/30 02:36:42;;;;;;;0.00;0.00;;;;;;;;;;4976068;28;20067;-84
2022/10/30 02:39:10;;;;;;;0.00;0.00;;;15.10;99.90;;;;;;4980690;28;20066;-83
2022/10/30 02:41:38;;;;;;;0.00;0.00;;;;;;;;;;4975821;28;20036;-82
2022/10/30 02:44:05;;;;;;;0.00;0.00;;;;;;;;;;4977773;28;20050;-80
2022/10/30 02:46:32;;;;;;;0.00;0.00;;;;;;;;;;4973950;28;20043;-82
2022/10/30 02:48:59;;;;;;;0.00;0.00;;;15.10;99.90;;;;;;4987045;28;20062;-81
2022/10/30 02:51:27;;;;;;;0.00;0.00;;;;;;;;;;4971024;28;20066;-81
2022/10/30 02:53:53;;;;;;;0.00;0.00;;;15.10;99.90;;;;;;4985198;28;20048;-84
2022/10/30 02:56:22;;;;;;;0.00;0.00;;;15.80;99.90;;;;;;5001681;28;20074;-83
2022/10/30 02:58:49;;;;;;;0.00;0.00;;;;;;;;;;4990009;28;20064;-82
2022/10/30 03:01:18;;;;;;;0.00;0.00;;;15.10;99.90;;;;;;4971075;28;20040;-82
2022/10/30 03:03:45;;;;;;;0.00;0.00;;;;;;;;;;4972825;28;20039;-82
2022/10/30 03:06:14;;;;;;;0.00;0.00;;;15.00;99.90;;;;;;4973276;28;20019;-82
2022/10/30 03:08:42;;;;;;;0.00;0.00;;;;;;;;;;4970770;28;20031;-81
2022/10/30 03:11:11;;;;;;;0.00;0.00;;;15.10;99.90;;;;;;4971930;28;20044;-81
2022/10/30 03:13:39;;;;;;;0.00;0.00;;;15.00;99.90;;;;;;4973251;28;21124;-82
2022/10/30 03:16:08;;;;;;;0.00;0.00;;;15.60;99.90;;;;;;4973465;28;20041;-81
2022/10/30 03:18:36;;;;;;;0.00;0.00;;;;;;;;;;4974277;28;20035;-82
2022/10/30 03:21:05;;;;;;;0.00;0.00;;;14.90;99.90;;;;;;4968951;28;20015;-84
2022/10/30 03:23:33;;;;;;;;;;;14.90;99.90;;;;;;4978268;28;20070;-81
2022/10/30 03:26:00;;;;;;;0.00;0.00;;;;;;;;;;4984505;28;19954;-83
2022/10/30 03:28:29;;;;;;;0.10;0.10;;;14.80;99.90;;;;;;4972815;28;20036;-81
2022/10/30 03:31:02;;;;;;;0.08;0.08;;;14.80;99.90;;;;;;4977202;28;20074;-82
2022/10/30 03:33:29;;;;;;;0.10;0.10;;;;;;;;;;4978996;28;20054;-82
2022/10/30 03:35:56;;;;;;;0.00;0.00;;;;;;;;;;4975173;28;20098;-83
2022/10/30 03:38:24;;;;;;;0.00;0.00;;;;;;;;;;4982136;28;20064;-84
2022/10/30 03:40:51;;;;;;;0.00;0.00;;;;;;;;;;4984150;28;20070;-81
2022/10/30 03:43:18;;;;;;;0.00;0.00;;;;;;;;;;4976624;28;20054;-83
2022/10/30 03:45:47;;;;;;;0.00;0.00;;;13.40;99.90;;;;;;4969862;28;20039;-82
2022/10/30 03:48:16;;;;;;;0.00;0.00;;;14.80;99.90;;;;;;4995819;28;20044;-80
2022/10/30 03:50:43;;;;;;;0.10;0.10;;;14.80;99.90;;;;;;4980092;28;20062;-82
2022/10/30 03:53:11;;;;;;;0.00;0.00;;;16.50;99.90;;;;;;4973791;28;20055;-81
2022/10/30 03:55:38;;;;;;;0.00;0.00;;;14.80;99.90;;;;;;5001332;28;20052;-80
2022/10/30 03:58:05;;;;;;;0.00;0.00;;;14.80;99.90;;;;;;4991868;28;20051;-81
2022/10/30 04:00:33;;;;;;;0.00;0.00;;;14.80;99.90;;;;;;4996297;28;20047;-81
2022/10/30 04:03:00;;;;;;;0.00;0.00;;;;;;;;;;5003111;28;20043;-81
2022/10/30 04:05:30;;;;;;;0.00;0.00;;;14.70;99.90;;;;;;4976458;28;20033;-83
2022/10/30 04:07:58;;;;;;;0.00;0.00;;;14.80;99.90;;;;;;4976770;28;20024;-82
2022/10/30 04:10:25;;;;;;;0.00;0.00;;;;;;;;;;4981585;28;20075;-81
2022/10/30 04:12:59;;;;;;;0.00;0.00;;;14.80;99.90;;;;;;4983220;28;20086;-80
2022/10/30 04:15:26;;;;;;;0.00;0.00;;;;;;;;;;4999219;28;20025;-81
2022/10/30 04:17:54;;;;;;;0.00;0.00;;;;;;;;;;4983011;28;20062;-82
2022/10/30 04:20:22;;;;;;;0.00;0.00;;;14.70;99.90;;;;;;4982256;28;20066;-82
2022/10/30 04:22:55;;;;;;;0.00;0.00;;;14.70;99.90;;;;;;4977260;28;20063;-83
2022/10/30 04:25:22;;;;;;;0.00;0.00;;;;;;;;;;4978708;28;20064;-83
2022/10/30 04:27:51;;;;;;;0.00;0.00;;;;;;;;;;4975287;28;20055;-82
2022/10/30 04:30:23;;;;;;;0.00;0.00;;;;;;;;;;4998212;28;20019;-82
2022/10/30 04:32:52;;;;;;;0.00;0.00;;;14.70;99.90;;;;;;4996748;28;20040;-83
2022/10/30 04:35:21;;;;;;;0.00;0.00;;;14.70;99.90;;;;;;4988863;28;20069;-83
2022/10/30 04:37:51;;;;;;;0.00;0.00;;;15.40;99.90;;;;;;5002461;28;20038;-81
2022/10/30 04:40:20;;;;;;;0.00;0.00;;;14.70;99.90;;;;;;4974788;28;20062;-80
2022/10/30 04:42:47;;;;;;;0.00;0.00;;;;;;;;;;4982327;28;20066;-82
2022/10/30 04:45:14;;;;;;;0.00;0.00;;;;;;;;;;4998084;28;20046;-82
2022/10/30 04:47:42;;;;;;;0.10;0.10;;;14.60;99.90;;;;;;4979075;28;20053;-81
2022/10/30 04:50:09;;;;;;;0.00;0.00;;;14.10;99.90;;;;;;4976076;28;20051;-81
2022/10/30 04:52:37;;;;;;;0.00;0.00;;;;;;;;;;4978764;28;20024;-80
2022/10/30 04:55:05;;;;;;;0.00;0.00;;;14.60;99.90;;;;;;4976560;28;20031;-80
2022/10/30 04:57:35;;;;;;;0.00;0.00;;;14.60;99.90;;;;;;4978326;28;20061;-83
2022/10/30 05:00:03;;;;;;;0.00;0.00;;;;;;;;;;4972474;28;20031;-81
2022/10/30 05:02:30;;;;;;;0.00;0.00;;;;;;;;;;4980497;28;20054;-81
2022/10/30 05:04:58;;;;;;;0.00;0.00;;;;;;;;;;4975471;28;20023;-82
2022/10/30 05:07:25;;;;;;;0.00;0.00;;;;;;;;;;4973068;28;20051;-82
2022/10/30 05:09:52;;;;;;;0.00;0.00;;;;;;;;;;4970166;28;20067;-83
2022/10/30 05:12:19;;;;;;;0.00;0.00;;;;;;;;;;4974606;28;20054;-81
2022/10/30 05:14:47;;;;;;;0.00;0.00;;;14.60;99.90;;;;;;4971413;28;20102;-82
2022/10/30 05:17:14;;;;;;;0.00;0.00;;;14.80;99.90;;;;;;4974319;28;20054;-80
2022/10/30 05:19:41;;;;;;;0.00;0.00;;;15.30;99.90;;;;;;4973265;28;20046;-81
2022/10/30 05:22:09;;;;;;;0.00;0.00;;;;;;;;;;4970677;28;20058;-81
2022/10/30 05:24:36;;;;;;;0.00;0.00;;;;;;;;;;4986792;28;20066;-80
2022/10/30 05:27:03;;;;;;;0.00;0.00;;;14.50;99.90;;;;;;4976060;28;20043;-80
2022/10/30 05:29:30;;;;;;;0.10;0.10;;;;;;;;;;5001712;28;20054;-82
2022/10/30 05:31:58;;;;;;;0.00;0.00;;;14.40;99.90;;;;;;4976445;28;20054;-81
2022/10/30 05:34:26;;;;;;;0.00;0.00;;;;;;;;;;4991019;28;20030;-81
2022/10/30 05:36:53;;;;;;;0.00;0.00;;;;;;;;;;4974273;28;20039;-83
2022/10/30 05:39:20;;;;;;;0.00;0.00;;;14.40;99.90;;;;;;4981893;28;20038;-81
2022/10/30 05:41:47;;;;;;;0.00;0.00;;;;;;;;;;4970233;28;20031;-83
2022/10/30 05:44:14;;;;;;;0.00;0.00;;;14.30;99.90;;;;;;4971177;28;20055;-80
2022/10/30 05:46:54;;;;;;;0.00;0.00;;;14.30;99.90;;;;;;4972341;28;20043;-81
2022/10/30 05:49:22;;;;;;;0.00;0.00;;;14.60;99.90;;;;;;4973773;28;20081;-82
2022/10/30 05:51:49;;;;;;;0.00;0.00;;;;;;;;;;4976991;28;20054;-82
2022/10/30 05:54:16;;;;;;;0.00;0.00;;;14.20;99.90;;;;;;4971943;28;20040;-82
2022/10/30 05:56:43;;;;;;;0.00;0.00;;;;;;;;;;4985471;28;20066;-83
2022/10/30 05:59:10;;;;;;;0.00;0.00;;;;;;;;;;4977516;28;20069;-80
2022/10/30 06:01:38;;;;;;;0.00;0.00;;;;;;;;;;4982809;28;20050;-82
2022/10/30 06:04:05;;;;;;;0.00;0.00;;;14.10;99.90;;;;;;4973558;28;20039;-82
2022/10/30 06:06:33;;;;;;;0.00;0.00;;;14.10;99.90;;;;;;4976029;28;20081;-81
2022/10/30 06:09:00;;;;;;;0.00;0.00;;;;;;;;;;4979770;28;20146;-83
2022/10/30 06:11:27;;;;;;;0.00;0.00;;;;;;;;;;4976036;28;20043;-81
2022/10/30 06:13:54;;;;;;;0.00;0.00;;;;;;;;;;4976087;28;20027;-81
2022/10/30 06:16:22;;;;;;;0.00;0.00;;;;;;;;;;4975180;28;20051;-83
2022/10/30 06:18:49;;;;;;;0.00;0.00;;;13.90;99.90;;;;;;4975172;28;20057;-84
2022/10/30 06:21:15;;;;;;;0.00;0.00;;;13.90;99.90;;;;;;4974626;28;20067;-82
2022/10/30 06:23:44;;;;;;;0.00;0.00;;;13.80;99.90;;;;;;4976009;28;20051;-82
2022/10/30 06:26:11;;;;;;;0.00;0.00;;;;;;;;;;4973944;28;20024;-82
2022/10/30 06:28:38;;;;;;;0.00;0.00;;;;;;;;;;4972084;28;20024;-81
2022/10/30 06:31:05;;;;;;;0.10;0.10;;;13.80;99.90;;;;;;4974278;28;21821;-82
2022/10/30 06:33:32;;;;;;;0.00;0.00;;;13.80;99.90;;;;;;4976333;28;20027;-83
2022/10/30 06:35:59;;;;;;;0.00;0.00;;;;;;;;;;4974642;28;20058;-81
2022/10/30 06:38:26;;;;;;;0.00;0.00;;;;;;;;;;4979446;28;20055;-82
2022/10/30 06:40:54;;;;;;;0.00;0.00;;;13.70;99.90;;;;;;4993877;28;20070;-82
2022/10/30 06:43:22;;;;;;;0.00;0.00;;;;;;;;;;4979847;28;20047;-81
2022/10/30 06:45:49;;;;;;;0.00;0.00;;;;;;;;;;4974708;28;20036;-81
2022/10/30 06:48:17;;;;;;;0.00;0.00;;;;;;;;;;4974930;28;20562;-82
2022/10/30 06:50:44;;;;;;;0.00;0.00;;;;;;;;;;4969059;28;20529;-80
2022/10/30 06:53:12;;;;;;;0.00;0.00;;;;;;;;;;4989866;28;20031;-80
2022/10/30 06:55:39;;;;;;;0.00;0.00;;;13.60;99.90;;;;;;4984701;28;20039;-81
2022/10/30 06:58:07;;;;;;;0.00;0.00;;;13.60;99.90;;;;;;4973740;28;20031;-83
2022/10/30 07:00:34;;;;;;;0.00;0.00;;;;;;;;;;5010254;28;20043;-81
2022/10/30 07:03:03;;;;;;;0.00;0.00;;;;;;;;;;4975266;28;20043;-82
2022/10/30 07:05:30;;;;;;;0.00;0.00;;;13.70;99.90;;;;;;5017094;28;21764;-82
2022/10/30 07:07:57;;;;;;;0.00;0.00;;;13.90;99.90;;;;;;4989045;28;20034;-81
2022/10/30 07:10:25;;;;;;;0.00;0.00;;;;;;;;;;4989866;28;20040;-80
2022/10/30 07:12:55;;;;;;;0.00;0.00;;;13.70;99.90;;;;;;4981532;28;20078;-80
2022/10/30 07:15:25;;;;;;;0.00;0.00;;;14.30;99.90;;;;;;5006916;28;20070;-83
2022/10/30 07:17:53;;;;;;;0.00;0.00;;;13.70;99.90;;;;;;4975830;28;20027;-82
2022/10/30 07:20:21;;;;;;;0.00;0.00;;;;;;;;;;4975878;28;20061;-83
2022/10/30 07:22:48;;;;;;;0.00;0.00;;;;;;;;;;4977132;28;20024;-82
2022/10/30 07:25:15;;;;;;;0.00;0.00;;;;;;;;;;4975463;28;20730;-81
2022/10/30 07:27:43;;;;;;;0.00;0.00;;;13.80;99.90;;;;;;4977366;28;20035;-82
2022/10/30 07:30:11;;;;;;;0.00;0.00;;;13.80;99.90;;;;;;5003007;28;20017;-81
2022/10/30 07:32:40;;;;;;;0.00;0.00;;;13.80;99.90;;;;;;4985102;28;20048;-81
2022/10/30 07:35:08;;;;;;;0.00;0.00;;;13.90;99.90;;;;;;4968131;28;20690;-81
2022/10/30 07:37:36;;;;;;;0.00;0.00;;;;;;;;;;4970682;28;20070;-83
2022/10/30 07:40:03;;;;;;;0.00;0.00;;;14.00;99.90;;;;;;4977951;28;20032;-83
2022/10/30 07:42:37;;;;;;;0.00;0.00;;;14.00;99.90;;;;;;4979185;28;20045;-81
2022/10/30 07:45:05;;;;;;;0.00;0.00;;;14.60;99.90;;;;;;4993204;28;20048;-79
2022/10/30 07:47:32;;;;;;;0.00;0.00;;;;;;;;;;4985761;28;20073;-82
2022/10/30 07:50:00;;;;;;;0.00;0.00;;;14.10;99.90;;;;;;4984923;28;20051;-83
2022/10/30 07:52:30;;;;;;;0.00;0.00;;;14.20;99.90;;;;;;4979983;28;20038;-83
2022/10/30 07:54:57;;;;;;;;;;;14.20;99.90;;;;;;4973410;28;20020;-82
2022/10/30 07:57:24;;;;;;;0.00;0.00;;;;;;;;;;4980161;28;19958;-81
2022/10/30 07:59:51;;;;;;;0.00;0.00;;;;;;;;;;4968938;28;20573;-82
2022/10/30 08:02:18;;;;;;;0.00;0.00;;;;;;;;;;4994660;28;20082;-83
2022/10/30 08:04:46;;;;;;;0.00;0.00;;;;;;;;;;4988647;28;20031;-82
2022/10/30 08:07:14;;;;;;;0.00;0.00;;;14.40;99.90;;;;;;4982606;28;20063;-80
2022/10/30 08:12:09;;;;;;;0.00;0.00;;;14.50;99.90;;;;;;4937424;28;20078;-86
2022/10/30 08:14:36;;;;;;;0.00;0.00;;;;;;;;;;4920977;28;20044;-83
2022/10/30 08:17:04;;;;;;;0.00;0.00;;;;;;;;;;4918789;28;20410;-84
2022/10/30 08:19:30;;;;;;;0.00;0.00;;;14.60;99.90;;;;;;5011218;28;20139;-87
2022/10/30 08:21:58;;;;;;;0.00;0.00;;;;;;;;;;4986677;28;20070;-86
2022/10/30 08:24:27;;;;;;;0.00;0.00;;;14.60;99.90;;;;;;4905054;29;20652;-86
2022/10/30 08:26:54;;;;;;;0.00;0.00;;;14.80;99.90;;;;;;4900706;28;20136;-86
2022/10/30 08:29:20;;;;;;;0.00;0.00;;;14.70;99.90;;;;;;4903773;28;20505;-86
2022/10/30 08:31:48;;;;;;;0.10;0.10;;;14.70;99.90;;;;;;4902820;29;20115;-86
2022/10/30 08:34:15;;;;;;;0.00;0.00;;;;;;;;;;4910295;28;20048;-86
2022/10/30 08:36:42;;;;;;;0.10;0.10;;;14.70;99.90;;;;;;4897651;28;20146;-86
2022/10/30 08:39:15;;;;;;;0.00;0.00;;;14.70;99.90;;;;;;4909676;28;20135;-86
2022/10/30 08:41:43;;;;;;;0.00;0.00;;;14.90;99.90;;;;;;4906726;28;20039;-86
2022/10/30 08:44:10;;;;;;;0.00;0.00;;;14.90;99.90;;;;;;4912924;28;20079;-86
2022/10/30 08:46:37;;;;;;;0.00;0.00;;;14.90;99.90;;;;;;4907606;28;20075;-87
2022/10/30 08:49:04;;;;;;;0.00;0.00;;;;;;;;;;4916255;28;20396;-86
2022/10/30 08:51:31;;;;;;;0.00;0.00;;;15.00;99.90;;;;;;4933091;28;20250;-86
2022/10/30 08:53:58;;;;;;;0.00;0.00;;;15.00;99.90;;;;;;4909642;29;20524;-88
2022/10/30 08:56:25;;;;;;;0.00;0.00;;;;;;;;;;4909135;28;20517;-86
2022/10/30 08:58:54;;;;;;;0.00;0.00;;;15.10;99.90;;;;;;4916834;29;20043;-85
2022/10/30 09:01:21;;;;;;;0.00;0.00;;;;;;;;;;4917400;29;20052;-86
2022/10/30 09:03:48;;;;;;;0.00;0.00;;;;;;;;;;4920032;29;20048;-86
2022/10/30 09:06:15;;;;;;;0.00;0.00;;;;;;;;;;4922492;28;20075;-86
2022/10/30 09:08:43;;;;;;;0.00;0.00;;;;;;;;;;4910266;28;20040;-87
2022/10/30 09:11:10;;;;;;;0.00;0.00;;;;;;;;;;4916723;28;20049;-88
2022/10/30 09:13:37;;;;;;;0.00;0.00;;;;;;;;;;4910400;29;20048;-86
2022/10/30 09:16:06;;;;;;;0.00;0.00;;;15.30;99.90;;;;;;4906605;28;20082;-87
2022/10/30 09:18:33;;;;;;;0.00;0.00;;;15.40;99.90;;;;;;4910654;29;20419;-86
2022/10/30 09:21:00;;;;;;;0.00;0.00;;;15.40;99.90;;;;;;4915170;29;20495;-86
2022/10/30 09:23:31;;;;;;;0.00;0.00;;;15.50;99.90;;;;;;4909801;28;20426;-87
2022/10/30 09:25:58;;;;;;;0.00;0.00;;;;;;;;;;4911137;28;20040;-87
2022/10/30 09:28:24;;;;;;;0.00;0.00;;;15.60;99.90;;;;;;4902535;29;20048;-87
2022/10/30 09:30:55;;;;;;;0.00;0.00;;;15.80;99.90;;;;;;4908543;28;20044;-85
2022/10/30 09:33:23;;;;;;;0.10;0.10;;;15.90;99.90;;;;;;4909759;28;20058;-86
2022/10/30 09:35:50;;;;;;;0.00;0.00;;;;;;;;;;4909016;28;20108;-87
2022/10/30 09:38:17;;;;;;;0.00;0.00;;;;;;;;;;4903252;28;20050;-88
2022/10/30 09:41:00;;;;;;;0.00;0.00;;;16.10;99.90;;;;;;4904987;28;20469;-86
2022/10/30 09:43:38;;;;;;;0.00;0.00;;;16.10;99.90;;;;;;4912218;28;20083;-86
2022/10/30 09:46:22;;;;;;;0.03;0.03;;;16.30;99.90;;;;;;4908332;28;20075;-86
2022/10/30 09:49:04;;;;;;;0.00;0.00;;;16.30;99.90;;;;;;4930792;28;20050;-87
2022/10/30 09:51:58;;;;;;;0.00;0.00;;;16.60;99.90;;;;;;4918944;28;20044;-86
2022/10/30 09:54:38;;;;;;;0.00;0.00;;;16.40;99.90;;;;;;4913429;28;20489;-87
2022/10/30 09:57:13;;;;;;;0.00;0.00;;;16.50;99.90;;;;;;4909956;29;20051;-86
2022/10/30 09:59:54;;;;;;;0.00;0.00;;;16.90;99.90;;;;;;4919619;29;20072;-86
2022/10/30 10:02:32;;;;;;;0.10;0.10;;;16.70;99.90;;;;;;4913335;28;20125;-86
2022/10/30 10:05:10;;;;;;;0.10;0.10;;;16.70;99.90;;;;;;4911046;29;20048;-85
2022/10/30 10:07:42;;;;;;;0.00;0.00;;;16.90;99.90;;;;;;4897025;29;20495;-86
2022/10/30 10:10:16;;;;;;;0.00;0.00;;;16.90;99.90;;;;;;4906318;29;20044;-87
2022/10/30 10:12:45;;;;;;;0.10;0.10;;;17.00;99.90;;;;;;4909329;29;20044;-86
2022/10/30 10:15:19;;;;;;;0.00;0.00;;;17.10;99.90;;;;;;4903620;28;20356;-84
2022/10/30 10:17:46;;;;;;;0.00;0.00;;;17.10;99.90;;;;;;4903788;29;20134;-87
2022/10/30 10:20:24;;;;;;;0.00;0.00;;;18.50;99.90;;;;;;4906442;29;20076;-86
2022/10/30 10:22:53;;;;;;;0.00;0.00;;;17.30;99.90;;;;;;4906290;28;20463;-86
2022/10/30 10:25:21;;;;;;;0.00;0.00;;;;;;;;;;4905849;28;20518;-84
2022/10/30 10:28:02;;;;;;;0.00;0.00;;;17.50;99.90;;;;;;4903880;29;20052;-84
2022/10/30 10:30:33;;;;;;;0.00;0.00;;;17.50;99.90;;;;;;4907304;28;20045;-85
2022/10/30 10:33:18;;;;;;;0.00;0.00;;;17.60;99.90;;;;;;4919337;28;20072;-86
2022/10/30 10:35:52;;;;;;;0.00;0.00;;;17.70;99.90;;;;;;4902791;28;20054;-88
2022/10/30 10:38:29;;;;;;;0.00;0.00;;;17.70;99.90;;;;;;4901965;29;20048;-85
2022/10/30 10:41:09;;;;;;;0.00;0.00;;;17.90;99.90;;;;;;4906281;28;20130;-86
2022/10/30 10:43:46;;;;;;;0.00;0.00;;;18.00;99.90;;;;;;4910350;28;20040;-85
2022/10/30 10:46:34;;;;;;;0.00;0.00;;;18.00;99.90;;;;;;4920912;28;20047;-87
2022/10/30 10:49:13;;;;;;;0.00;0.00;;;18.10;99.90;;;;;;4916271;28;20044;-86
2022/10/30 10:51:46;;;;;;;0.07;0.00;;;18.60;99.90;;;;;;4909491;28;20041;-86
2022/10/30 10:54:17;;;;;;;0.00;0.00;;;18.20;99.90;;;;;;4912243;29;20071;-86
2022/10/30 10:56:47;;;;;;;0.05;0.05;;;18.20;99.90;;;;;;4928343;28;20267;-86
2022/10/30 10:59:18;;;;;;;0.00;0.00;;;18.30;99.90;;;;;;4923201;28;20050;-86
2022/10/30 11:01:51;;;;;;;0.00;0.00;;;18.30;99.90;;;;;;4914114;28;20080;-85
2022/10/30 11:04:28;;;;;;;0.00;0.00;;;18.40;99.90;;;;;;4917029;28;20135;-87
2022/10/30 11:06:58;;;;;;;0.00;0.00;;;18.40;99.90;;;;;;4907315;28;20086;-87
2022/10/30 11:09:28;;;;;;;0.00;0.00;;;18.50;99.90;;;;;;4923526;28;20062;-88
2022/10/30 11:11:55;;;;;;;0.00;0.00;;;;;;;;;;4888185;28;1278042;-86
2022/10/30 11:14:26;;;;;;;0.00;0.00;;;18.60;99.90;;;;;;4916049;28;20055;-86
2022/10/30 11:17:05;;;;;;;0.00;0.00;;;18.60;99.90;;;;;;4920580;28;20055;-86
2022/10/30 11:19:32;;;;;;;0.00;0.00;;;18.60;99.90;;;;;;4920167;28;20059;-86
2022/10/30 11:22:02;;;;;;;0.00;0.00;;;18.70;99.90;;;;;;4914647;28;20131;-87
2022/10/30 11:24:31;;;;;;;0.00;0.00;;;19.30;99.90;;;;;;4934318;28;20463;-86
2022/10/30 11:27:15;;;;;;;0.00;0.00;;;18.70;99.90;;;;;;4925651;28;20506;-87
2022/10/30 11:29:49;;;;;;;0.00;0.00;;;18.90;99.90;;;;;;4929003;28;20155;-86
2022/10/30 11:32:19;;;;;;;0.00;0.00;;;18.90;99.90;;;;;;4906962;28;20075;-85
2022/10/30 11:34:46;;;;;;;;;;;18.90;99.90;;;;;;4911814;29;20055;-87
2022/10/30 11:37:29;;;;;;;0.00;0.00;;;19.00;99.90;;;;;;4998089;28;19922;-85
2022/10/30 11:40:02;;;;;;;0.00;0.00;;;19.00;99.90;;;;;;4915591;28;20048;-86
2022/10/30 11:42:29;;;;;;;0.00;0.00;;;20.30;99.90;;;;;;4914091;29;20075;-86
2022/10/30 11:44:57;;;;;;;0.00;0.00;;;19.10;99.90;;;;;;4917186;29;20551;-86
2022/10/30 11:47:29;;;;;;;0.00;0.00;;;19.10;99.90;;;;;;4913613;29;20076;-86
2022/10/30 11:49:58;;;;;;;0.00;0.00;;;19.20;99.90;;;;;;4921236;28;20051;-86
2022/10/30 11:52:26;;;;;;;0.00;0.00;;;19.20;99.90;;;;;;4907925;28;20048;-86
2022/10/30 11:54:56;;;;;;;0.00;0.00;;;20.60;99.90;;;;;;4924454;28;20054;-86
2022/10/30 11:57:31;;;;;;;0.00;0.00;;;19.30;99.90;;;;;;4930828;28;20582;-84
2022/10/30 11:59:58;;;;;;;0.00;0.00;;;19.40;99.90;;;;;;4918993;28;20052;-87
2022/10/30 12:02:41;;;;;;;0.00;0.00;;;19.40;99.90;;;;;;4919346;28;20512;-86
2022/10/30 12:05:37;;;;;;;0.00;0.00;;;19.50;99.90;;;;;;4908346;29;20055;-87
2022/10/30 12:08:17;;;;;;;0.00;0.00;;;19.50;99.90;;;;;;4911210;29;20040;-87
2022/10/30 12:10:53;;;;;;;0.00;0.00;;;19.50;99.90;;;;;;4919001;28;20048;-86
2022/10/30 12:13:22;;;;;;;0.00;0.00;;;19.60;99.90;;;;;;4913657;28;20079;-86
2022/10/30 12:15:50;;;;;;;0.00;0.00;;;19.60;99.90;;;;;;4923462;28;20134;-88
2022/10/30 12:18:21;;;;;;;0.00;0.00;;;19.60;99.90;;;;;;4912110;28;20500;-87
2022/10/30 12:20:51;;;;;;;0.00;0.00;;;19.60;99.90;;;;;;4931385;28;20056;-86
2022/10/30 12:23:23;;;;;;;0.00;0.00;;;20.00;99.90;;;;;;4918047;29;20040;-85
2022/10/30 12:25:52;;;;;;;0.00;0.00;;;19.70;99.90;;;;;;4918103;29;20060;-86
2022/10/30 12:28:21;;;;;;;0.00;0.00;;;19.70;99.90;;;;;;4924642;29;20047;-85
2022/10/30 12:30:53;;;;;;;0.00;0.00;;;19.70;99.90;;;;;;4916661;29;20464;-86
2022/10/30 12:33:23;;;;;;;0.00;0.00;;;19.70;99.90;;;;;;4921184;29;20110;-86
2022/10/30 12:35:51;;;;;;;;;;;19.70;99.90;;;;;;4918886;28;20102;-86
2022/10/30 12:38:24;;;;;;;0.00;0.00;;;19.80;99.90;;;;;;4915579;28;19922;-86
2022/10/30 12:41:01;;;;;;;0.00;0.00;;;19.80;99.90;;;;;;4909281;29;20064;-87
2022/10/30 12:43:33;;;;;;;0.00;0.00;;;19.80;99.90;;;;;;4930531;29;20475;-85
2022/10/30 12:46:13;;;;;;;0.00;0.00;;;20.80;99.90;;;;;;4915156;29;20048;-86
2022/10/30 12:48:49;;;;;;;0.00;0.00;;;19.90;99.90;;;;;;4919132;29;20166;-87
2022/10/30 12:51:19;;;;;;;0.00;0.00;;;19.90;99.90;;;;;;4912996;29;20048;-86
2022/10/30 12:53:58;;;;;;;0.00;0.00;;;19.90;99.90;;;;;;4916799;29;20056;-86
2022/10/30 12:56:30;;;;;;;0.00;0.00;;;19.90;99.90;;;;;;4914563;29;20054;-86
2022/10/30 12:59:09;;;;;;;0.00;0.00;;;20.80;99.90;;;;;;4914746;28;20036;-86
2022/10/30 13:01:43;;;;;;;0.00;0.00;;;19.90;99.90;;;;;;4913335;29;20054;-84
2022/10/30 13:04:17;;;;;;;0.00;0.00;;;20.00;99.90;;;;;;4940832;28;20053;-85
2022/10/30 13:06:49;;;;;;;0.00;0.00;;;20.00;99.90;;;;;;4913362;28;20044;-85
2022/10/30 13:09:22;;;;;;;0.00;0.00;;;20.00;99.90;;;;;;4913910;28;20500;-87
2022/10/30 13:11:54;;;;;;;0.00;0.00;;;20.00;99.90;;;;;;4923586;29;20044;-86
2022/10/30 13:14:29;;;;;;;0.00;0.00;;;20.00;99.90;;;;;;4916634;28;20032;-86
2022/10/30 13:16:55;;;;;;;0.00;0.00;;;20.10;99.90;;;;;;4920144;28;20052;-86
2022/10/30 13:19:23;;;;;;;0.00;0.00;;;20.10;99.90;;;;;;4911921;28;20044;-85
2022/10/30 13:21:57;;;;;;;0.00;0.00;;;20.10;99.90;;;;;;4919994;28;20510;-85
2022/10/30 13:24:39;;;;;;;0.00;0.00;;;20.80;99.90;;;;;;4918951;29;20394;-86
2022/10/30 13:27:13;;;;;;;0.00;0.00;;;20.10;99.90;;;;;;4921838;28;20068;-86
2022/10/30 13:29:45;;;;;;;0.00;0.00;;;20.10;99.90;;;;;;4918732;28;20043;-86
2022/10/30 13:32:26;;;;;;;0.00;0.00;;;20.10;99.90;;;;;;4912616;29;20040;-86
2022/10/30 13:35:03;;;;;;;0.00;0.00;;;20.10;99.90;;;;;;4917878;29;20048;-85
2022/10/30 13:37:36;;;;;;;0.00;0.00;;;20.10;99.90;;;;;;4918324;29;20040;-87
2022/10/30 13:40:16;;;;;;;0.00;0.00;;;20.10;99.90;;;;;;4913923;29;20074;-86
2022/10/30 13:42:59;;;;;;;0.00;0.00;;;22.20;99.90;;;;;;4921183;28;20054;-85